< < Back
Terminal Aerodrome Forecast


Current Version              Previous Versions:   1  2  3  4  5  6  7  8  9  

Terminal Aerodrome Forecast

410
FTUS42 KFFC 031130
TAFATL
TAF
KATL 031130Z 0312/0418 07005KT P6SM SCT100
     FM031400 34005KT P6SM SCT100 SCT250
     FM031700 31006KT P6SM SCT050
     FM040300 35004KT P6SM FEW080
     FM041700 32005KT P6SM FEW040=



Latest METAR

959
SAUS70 KWBC 031900 RRL
MTRATL
METAR KATL 031852Z 00000KT 10SM SCT050TCU SCT250 33/19 A2993 RMK AO2
SLP123 TCU N & S-SW-W-NW T03330194


USA.gov is the U.S. government's official web portal to all federal, state and local government web resources and services.